Flight Track Log - Related Links

Times and Time Zones

All times are in EDT time to prevent confusion due to time zone crossing. See the LXJ518 flight status page for this flight to view local times or setup timezone preferences in your user account.


Time Position Orientation Groundspeed Altitude Reporting Facility
EDT Latitude Longitude Course Direction KTS MPH feet Rate Location/Type
Sun 04:39:26 PM 36.1017 -115.1575 62° Northeast 159 183 3,500  Level Los Angeles Center
Sun 04:40:39 PM 36.1344 -115.0825 83° East 256 295 7,700 3,416 Climbing Los Angeles Center
Sun 04:41:43 PM 36.1461 -114.9692 107° East 323 372 11,300 3,726 Climbing Los Angeles Center
Sun 04:42:43 PM 36.1178 -114.8514 111° Southeast 340 391 15,400 3,630 Climbing Los Angeles Center
Sun 04:43:42 PM 36.0789 -114.7286 110° East 353 406 18,500 2,773 Climbing Los Angeles Center
Sun 04:44:42 PM 36.0397 -114.5958 107° East 388 447 20,900 1,600 Climbing Los Angeles Center
Sun 04:45:42 PM 36.0044 -114.4525 100° East 411 473 21,700 1,100 Climbing Los Angeles Center
Sun 04:46:42 PM 35.9836 -114.3067 114° Southeast 423 487 23,100 2,000 Climbing Los Angeles Center
Sun 04:47:42 PM 35.9336 -114.1694 119° Southeast 428 493 25,700 2,550 Climbing Los Angeles Center
Sun 04:48:42 PM 35.8708 -114.0325 120° Southeast 444 511 28,200 2,400 Climbing Los Angeles Center
Sun 04:49:42 PM 35.8058 -113.8958 120° Southeast 456 525 30,500 2,150 Climbing Los Angeles Center
Sun 04:50:42 PM 35.7383 -113.7519 122° Southeast 461 531 32,500 2,150 Climbing Los Angeles Center
Sun 04:51:42 PM 35.6689 -113.6158 120° Southeast 467 537 34,800 2,275 Climbing Los Angeles Center
Sun 04:53:44 PM 35.5386 -113.3358 120° Southeast 466 536 39,400 1,946 Climbing Albuquerque Center
Sun 04:54:47 PM 35.4756 -113.2042 121° Southeast 453 521 40,800 1,152 Climbing Albuquerque Center
Sun 04:55:49 PM 35.4114 -113.0711 121° Southeast 455 524 41,800 1,016 Climbing Albuquerque Center
Sun 04:56:51 PM 35.3400 -112.9236 121° Southeast 466 536 42,900 1,008 Climbing Albuquerque Center
Sun 04:57:54 PM 35.2733 -112.7853 121° Southeast 467 537 43,900 960 Climbing Albuquerque Center
Sun 04:58:56 PM 35.2094 -112.6539 121° Southeast 459 528 44,900 528 Climbing Albuquerque Center
Sun 04:59:59 PM 35.1450 -112.5222 121° Southeast 454 522 45,000 48 Climbing Albuquerque Center
Sun 05:01:01 PM 35.0642 -112.3603 121° Southeast 463 533 45,000  Level Albuquerque Center
Sun 05:02:03 PM 34.9956 -112.2197 121° Southeast 476 548 45,000  Level Albuquerque Center
Sun 05:03:06 PM 34.9264 -112.0803 121° Southeast 483 556 45,000  Level Albuquerque Center
Sun 05:04:08 PM 34.8575 -111.9408 121° Southeast 484 557 45,000  Level Albuquerque Center
Sun 05:05:11 PM 34.7742 -111.7747 121° Southeast 483 556 45,000  Level Albuquerque Center
Sun 05:06:13 PM 34.7056 -111.6378 121° Southeast 482 555 45,000  Level Albuquerque Center
Sun 05:07:16 PM 34.6347 -111.4961 121° Southeast 481 554 45,000  Level Albuquerque Center
Sun 05:08:18 PM 34.5642 -111.3544 122° Southeast 481 554 45,000  Level Albuquerque Center
Sun 05:09:21 PM 34.4919 -111.2133 122° Southeast 482 555 45,000  Level Albuquerque Center
Sun 05:10:23 PM 34.4203 -111.0719 122° Southeast 482 555 45,000  Level Albuquerque Center
Sun 05:11:25 PM 34.3481 -110.9317 122° Southeast 482 555 45,000  Level Albuquerque Center
Sun 05:12:28 PM 34.2761 -110.7908 122° Southeast 482 555 45,000  Level Albuquerque Center
Sun 05:13:30 PM 34.1947 -110.6311 122° Southeast 481 554 45,000  Level Albuquerque Center
Sun 05:14:33 PM 34.1242 -110.4964 121° Southeast 479 551 45,000  Level Albuquerque Center
Sun 05:15:35 PM 34.0561 -110.3603 122° Southeast 479 551 45,000  Level Albuquerque Center
Sun 05:16:38 PM 33.9711 -110.1981 123° Southeast 480 552 45,000  Level Albuquerque Center
Sun 05:17:40 PM 33.9000 -110.0653 121° Southeast 478 550 45,000  Level Albuquerque Center
Sun 05:18:43 PM 33.8311 -109.9292 122° Southeast 479 551 45,000  Level Albuquerque Center
Sun 05:19:45 PM 33.7603 -109.7928 123° Southeast 483 556 45,000  Level Albuquerque Center
Sun 05:20:47 PM 33.6872 -109.6578 123° Southeast 484 557 45,000  Level Albuquerque Center
Sun 05:21:50 PM 33.6011 -109.4975 122° Southeast 483 556 45,000  Level Albuquerque Center
Sun 05:22:52 PM 33.5303 -109.3625 122° Southeast 482 555 45,000  Level Albuquerque Center
Sun 05:23:55 PM 33.4581 -109.2261 123° Southeast 484 557 45,000  Level Albuquerque Center
Sun 05:24:57 PM 33.3842 -109.0892 123° Southeast 488 562 45,000  Level Albuquerque Center
Sun 05:25:59 PM 33.2953 -108.9233 123° Southeast 492 566 45,000  Level Albuquerque Center
Sun 05:27:02 PM 33.2206 -108.7858 124° Southeast 490 564 45,000  Level Albuquerque Center
Sun 05:28:04 PM 33.1428 -108.6489 122° Southeast 493 567 45,000  Level Albuquerque Center
Sun 05:29:06 PM 33.0700 -108.5111 123° Southeast 492 566 45,000  Level Albuquerque Center
Sun 05:30:09 PM 32.9953 -108.3750 124° Southeast 492 566 45,000  Level Albuquerque Center
Sun 05:31:11 PM 32.9200 -108.2406 124° Southeast 491 565 45,000  Level Albuquerque Center
Sun 05:32:13 PM 32.8297 -108.0803 122° Southeast 491 565 45,000  Level Albuquerque Center
Sun 05:33:16 PM 32.7567 -107.9433 123° Southeast 491 565 45,000  Level Albuquerque Center
Sun 05:34:18 PM 32.6825 -107.8103 124° Southeast 489 563 45,000  Level Albuquerque Center
Sun 05:35:20 PM 32.6075 -107.6775 123° Southeast 486 559 45,000  Level Albuquerque Center
Sun 05:36:22 PM 32.5192 -107.5189 123° Southeast 484 557 45,000  Level Albuquerque Center
Sun 05:37:25 PM 32.4472 -107.3894 124° Southeast 482 555 45,000  Level Albuquerque Center
Sun 05:38:27 PM 32.3736 -107.2594 123° Southeast 481 554 45,000  Level Albuquerque Center
Sun 05:39:29 PM 32.2936 -107.1117 124° Southeast 476 548 45,000  Level Albuquerque Center
Sun 05:40:32 PM 32.2142 -106.9711 124° Southeast 478 550 45,000  Level Albuquerque Center
Sun 05:41:34 PM 32.1417 -106.8464 124° Southeast 481 554 45,000  Level Albuquerque Center
Sun 05:42:36 PM 32.0667 -106.7158 124° Southeast 483 556 45,000  Level Albuquerque Center
Sun 05:43:39 PM 31.9908 -106.5858 125° Southeast 483 556 45,000  Level Albuquerque Center
Sun 05:44:41 PM 31.9147 -106.4561 123° Southeast 483 556 45,000  Level Albuquerque Center
Sun 05:45:43 PM 31.8378 -106.3178 104° East 489 563 45,000  Level Albuquerque Center
Sun 05:46:46 PM 31.7981 -106.1278 99° East 501 577 45,000  Level Albuquerque Center
Sun 05:47:48 PM 31.7775 -105.9672 98° East 498 573 45,000  Level Albuquerque Center
Sun 05:48:50 PM 31.7575 -105.8058 98° East 498 573 45,000  Level Albuquerque Center
Sun 05:49:53 PM 31.7375 -105.6444 98° East 499 574 45,000  Level Albuquerque Center
Sun 05:50:55 PM 31.7181 -105.4814 98° East 501 577 45,000  Level Albuquerque Center
Sun 05:51:57 PM 31.6947 -105.2878 99° East 498 573 45,000  Level Albuquerque Center
Sun 05:53:00 PM 31.6736 -105.1264 98° East 498 573 45,000  Level Albuquerque Center
Sun 05:54:02 PM 31.6539 -104.9644 98° East 499 574 45,000  Level Albuquerque Center
Sun 05:55:04 PM 31.6339 -104.8022 98° East 500 575 45,000 -48 Level Albuquerque Center
Sun 05:56:07 PM 31.6133 -104.6400 99° East 500 575 44,900  Descending Albuquerque Center
Sun 05:57:09 PM 31.5917 -104.4775 99° East 502 578 45,000 48 Climbing Albuquerque Center
Sun 05:58:11 PM 31.5667 -104.2836 99° East 501 577 45,000 -48 Level Albuquerque Center
Sun 05:59:14 PM 31.5453 -104.1225 99° East 500 575 44,900  Descending Albuquerque Center
Sun 06:00:16 PM 31.5233 -103.9603 99° East 502 578 45,000 48 Climbing Albuquerque Center
Sun 06:01:19 PM 31.5017 -103.7978 99° East 503 579 45,000  Level Albuquerque Center
Sun 06:02:21 PM 31.4769 -103.6147 99° East 502 578 45,000  Level Albuquerque Center
Sun 06:03:23 PM 31.4542 -103.4533 98° East 503 579 45,000  Level Albuquerque Center
Sun 06:04:26 PM 31.4342 -103.2919 99° East 502 578 45,000  Level Albuquerque Center
Sun 06:05:28 PM 31.4133 -103.1303 98° East 503 579 45,000  Level Albuquerque Center
Sun 06:06:30 PM 31.3886 -102.9361 99° East 503 579 45,000  Level Albuquerque Center
Sun 06:07:33 PM 31.3675 -102.7733 98° East 506 582 45,000  Level Albuquerque Center
Sun 06:08:35 PM 31.3472 -102.6111 99° East 505 581 45,000  Level Albuquerque Center
Sun 06:09:37 PM 31.3258 -102.4481 99° East 511 588 45,000  Level Albuquerque Center
Sun 06:10:39 PM 31.3042 -102.2839 99° East 510 587 45,000  Level Albuquerque Center
Sun 06:11:42 PM 31.2789 -102.0942 99° East 505 581 45,000  Level Albuquerque Center
Sun 06:12:44 PM 31.2578 -101.9322 99° East 503 579 45,000  Level Albuquerque Center
Sun 06:13:26 PM 31.2422 -101.8131 100° East 518 596 45,000  Level Houston Center
Sun 06:14:26 PM 31.2189 -101.6533 99° East 504 580 45,000 -50 Level Houston Center
Sun 06:15:26 PM 31.1975 -101.4889 99° East 504 580 44,900 -50 Descending Houston Center
Sun 06:16:26 PM 31.1797 -101.3611 99° East 504 580 44,900 50 Level Houston Center
Sun 06:17:26 PM 31.1567 -101.1894 99° East 499 574 45,000 50 Climbing Houston Center
Sun 06:18:26 PM 31.1347 -101.0275 100° East 499 574 45,000  Level Houston Center
Sun 06:19:26 PM 31.1108 -100.8631 98° East 499 574 45,000  Level Houston Center
Sun 06:20:26 PM 31.0906 -100.6992 100° East 499 574 45,000  Level Houston Center
Sun 06:21:26 PM 31.0656 -100.5419 100° East 504 580 45,000  Level Houston Center
Sun 06:22:27 PM 31.0406 -100.3825 100° East 506 582 45,000  Level Houston Center
Sun 06:23:26 PM 31.0175 -100.2231 100° East 501 577 45,000  Level Houston Center
Sun 06:24:26 PM 30.9922 -100.0614 100° East 501 577 45,000 -250 Level Houston Center
Sun 06:25:26 PM 30.9689 -99.9000 100° East 501 577 44,500 -850 Descending Houston Center
Sun 06:26:26 PM 30.9453 -99.7408 100° East 501 577 43,300 -1,600 Descending Houston Center
Sun 06:27:26 PM 30.9194 -99.5767 100° East 506 582 41,300 -2,050 Descending Houston Center
Sun 06:28:26 PM 30.8972 -99.4228 100° East 506 582 39,200 -2,500 Descending Houston Center
Sun 06:29:26 PM 30.8733 -99.2589 103° East 506 582 36,300 -2,950 Descending Houston Center
Sun 06:30:26 PM 30.8392 -99.0850 100° East 506 582 33,300 -3,433 Descending Houston Center
Sun 06:32:26 PM 30.7917 -98.7650 97° East 506 582 26,000 -3,100 Descending Houston Center
Sun 06:33:26 PM 30.7767 -98.6144 97° East 457 526 24,000 -4,250 Descending Houston Center
Sun 06:34:26 PM 30.7642 -98.4928 97° East 457 526 17,500 -5,100 Descending Houston Center
Sun 06:35:26 PM 30.7500 -98.3614 97° East 425 489 13,800 -3,000 Descending Houston Center
Sun 06:36:26 PM 30.7369 -98.2400 97° East 396 456 11,500 -1,900 Descending Houston Center
Sun 06:37:26 PM 30.7242 -98.1208 121° Southeast 378 435 10,000 -750 Descending Houston Center
Sun 06:38:26 PM 30.6744 -98.0236 130° Southeast 341 392 10,000 -1,167 Level Houston Center
Sun 06:40:26 PM 30.5747 -97.8847 129° Southeast 279 321 6,500 -1,633 Descending Houston Center
Sun 06:41:26 PM 30.5256 -97.8142 133° Southeast 268 308 5,100 -1,150 Descending Houston Center
Sun 06:42:26 PM 30.4783 -97.7561 131° Southeast 251 289 4,200 -1,000 Descending Houston Center
Sun 06:43:26 PM 30.4350 -97.6981 152° Southeast 246 283 3,100 -600 Descending Houston Center
Sun 06:44:26 PM 30.3781 -97.6633 177° South 239 275 3,000 -200 Descending Houston Center
Sun 06:45:26 PM 30.3094 -97.6594 181° South 230 265 2,700 -700 Descending Houston Center
Sun 06:46:26 PM 30.2511 -97.6608 177° South 227 261 1,600 -850 Descending Houston Center
Sun 06:47:26 PM 30.2239 -97.6592 177° South 173 199 1,000 -600 Descending Houston Center

Login

Don't have an account? Register now (free) for customized features, flight alerts, and more!